createdAt,value
2018-02-10T00:00:05.872Z,99707.51
2018-02-10T00:02:34.424Z,99708.23
2018-02-10T00:05:03.004Z,99701.39
2018-02-10T00:07:31.701Z,99697.77
2018-02-10T00:10:00.257Z,99701.27
2018-02-10T00:12:29.560Z,99690.05
2018-02-10T00:14:59.029Z,99694.83
2018-02-10T00:17:27.591Z,99689.41
2018-02-10T00:19:56.151Z,99690.73
2018-02-10T00:22:35.815Z,99688.41
2018-02-10T00:25:04.369Z,99677.80
2018-02-10T00:27:32.913Z,99685.41
2018-02-10T00:30:02.380Z,99692.41
2018-02-10T00:32:30.934Z,99692.56
2018-02-10T00:34:59.499Z,99687.28
2018-02-10T00:37:28.872Z,99692.05
2018-02-10T00:39:57.430Z,99691.08
2018-02-10T00:42:25.993Z,99687.06
2018-02-10T00:44:54.895Z,99686.44
2018-02-10T00:47:23.477Z,99675.38
2018-02-10T00:49:52.027Z,99670.18
2018-02-10T00:52:21.705Z,99665.05
2018-02-10T00:54:50.332Z,99666.54
2018-02-10T00:57:18.884Z,99662.36
2018-02-10T00:59:47.693Z,99660.61
2018-02-10T01:02:17.004Z,99665.52
2018-02-10T01:04:45.553Z,99675.30
2018-02-10T01:07:14.199Z,99671.77
2018-02-10T01:09:42.753Z,99676.84
2018-02-10T01:12:11.309Z,99679.23
2018-02-10T01:14:39.926Z,99685.98
2018-02-10T01:17:08.473Z,99675.65
2018-02-10T01:19:37.017Z,99670.71
2018-02-10T01:22:05.821Z,99669.05
2018-02-10T01:24:34.368Z,99663.74
2018-02-10T01:27:02.932Z,99666.63
2018-02-10T01:29:32.313Z,99669.17
2018-02-10T01:32:00.872Z,99658.58
2018-02-10T01:34:30.177Z,99663.29
2018-02-10T01:36:59.069Z,99661.21
2018-02-10T01:39:27.650Z,99659.80
2018-02-10T01:41:56.210Z,99666.07
2018-02-10T01:44:25.020Z,99658.80
2018-02-10T01:46:53.616Z,99653.47
2018-02-10T01:49:22.172Z,99647.56
2018-02-10T01:51:51.073Z,99645.13
2018-02-10T01:54:19.618Z,99639.66
2018-02-10T01:56:48.166Z,99640.72
2018-02-10T01:59:16.769Z,99639.45
2018-02-10T02:01:46.081Z,99637.13
2018-02-10T02:04:14.635Z,99643.03
2018-02-10T02:06:43.337Z,99640.61
2018-02-10T02:09:12.653Z,99645.17
2018-02-10T02:11:41.201Z,99651.71
2018-02-10T02:14:09.826Z,99649.18
2018-02-10T02:16:38.378Z,99647.27
2018-02-10T02:19:07.748Z,99645.80
2018-02-10T02:21:36.444Z,99650.73
2018-02-10T02:24:05.025Z,99654.31
2018-02-10T02:26:33.577Z,99652.59
2018-02-10T02:29:02.283Z,99653.17
2018-02-10T02:31:30.837Z,99659.12
2018-02-10T02:33:59.396Z,99662.29
2018-02-10T02:36:28.954Z,99664.48
2018-02-10T02:38:57.509Z,99671.66
2018-02-10T02:41:26.054Z,99667.12
2018-02-10T02:43:54.917Z,99673.89
2018-02-10T02:46:23.473Z,99682.52
2018-02-10T02:48:52.026Z,99684.31
2018-02-10T02:51:20.971Z,99685.41
2018-02-10T02:53:49.526Z,99675.98
2018-02-10T02:56:18.087Z,99660.45
2018-02-10T02:58:46.714Z,99654.05
2018-02-10T03:01:15.265Z,99646.11
2018-02-10T03:03:43.814Z,99649.26
2018-02-10T03:06:13.292Z,99649.81
2018-02-10T03:08:41.853Z,99648.02
2018-02-10T03:11:10.401Z,99637.95
2018-02-10T03:13:39.868Z,99639.58
2018-02-10T03:16:08.467Z,99635.98
2018-02-10T03:18:37.029Z,99630.41
2018-02-10T03:21:05.803Z,99627.47
2018-02-10T03:23:34.357Z,99629.44
2018-02-10T03:26:02.907Z,99626.39
2018-02-10T03:28:32.381Z,99622.73
2018-02-10T03:31:00.932Z,99617.98
2018-02-10T03:33:29.493Z,99625.38
2018-02-10T03:35:59.053Z,99628.73
2018-02-10T03:38:27.614Z,99633.75
2018-02-10T03:40:56.164Z,99641.17
2018-02-10T03:43:25.641Z,99629.84
2018-02-10T03:45:54.209Z,99630.05
2018-02-10T03:48:22.765Z,99626.41
2018-02-10T03:50:51.573Z,99616.08
2018-02-10T03:53:20.125Z,99618.05
2018-02-10T03:55:48.672Z,99622.69
2018-02-10T03:58:18.784Z,99621.52
2018-02-10T04:00:47.358Z,99628.04
2018-02-10T04:03:15.918Z,99642.09
2018-02-10T04:05:44.529Z,99644.30
2018-02-10T04:08:13.093Z,99651.19
2018-02-10T04:10:41.648Z,99645.91
2018-02-10T04:13:10.371Z,99635.36
2018-02-10T04:15:38.924Z,99625.13
2018-02-10T04:18:07.474Z,99627.05
2018-02-10T04:20:36.836Z,99620.95
2018-02-10T04:23:05.388Z,99628.70
2018-02-10T04:25:33.952Z,99625.41
2018-02-10T04:28:03.505Z,99622.23
2018-02-10T04:30:32.070Z,99622.41
2018-02-10T04:33:00.628Z,99620.31
2018-02-10T04:35:29.996Z,99616.17
2018-02-10T04:37:58.558Z,99617.77
2018-02-10T04:40:27.110Z,99621.34
2018-02-10T04:42:55.832Z,99626.95
2018-02-10T04:45:24.394Z,99621.11
2018-02-10T04:47:52.955Z,99620.20
2018-02-10T04:50:21.649Z,99629.25
2018-02-10T04:52:50.198Z,99629.40
2018-02-10T04:55:19.526Z,99630.34
2018-02-10T04:57:48.232Z,99637.55
2018-02-10T05:00:16.784Z,99631.28
2018-02-10T05:02:46.103Z,99629.10
2018-02-10T05:05:14.716Z,99626.83
2018-02-10T05:07:43.268Z,99634.03
2018-02-10T05:10:11.825Z,99638.23
2018-02-10T05:12:41.205Z,99636.78
2018-02-10T05:15:09.763Z,99640.05
2018-02-10T05:17:38.325Z,99652.31
2018-02-10T05:20:06.927Z,99654.95
2018-02-10T05:22:35.485Z,99651.27
2018-02-10T05:25:04.056Z,99654.14
2018-02-10T05:27:32.884Z,99655.92
2018-02-10T05:30:01.439Z,99654.75
2018-02-10T05:32:29.986Z,99649.70
2018-02-10T05:34:58.844Z,99651.77
2018-02-10T05:37:27.396Z,99643.08
2018-02-10T05:39:56.349Z,99640.84
2018-02-10T05:42:25.921Z,99639.57
2018-02-10T05:44:54.473Z,99643.73
2018-02-10T05:47:23.036Z,99647.22
2018-02-10T05:49:52.692Z,99655.97
2018-02-10T05:52:21.249Z,99655.62
2018-02-10T05:54:49.812Z,99651.87
2018-02-10T05:57:19.370Z,99653.88
2018-02-10T05:59:47.920Z,99657.87
2018-02-10T06:02:16.474Z,99649.48
2018-02-10T06:04:45.896Z,99648.50
2018-02-10T06:07:14.461Z,99649.02
2018-02-10T06:09:43.780Z,99649.13
2018-02-10T06:12:12.613Z,99648.78
2018-02-10T06:14:41.164Z,99652.36
2018-02-10T06:17:09.713Z,99648.73
2018-02-10T06:19:39.087Z,99648.73
2018-02-10T06:22:07.641Z,99651.74
2018-02-10T06:24:36.184Z,99649.42
2018-02-10T06:27:05.717Z,99644.63
2018-02-10T06:29:34.271Z,99646.99
2018-02-10T06:32:03.608Z,99642.91
2018-02-10T06:34:32.427Z,99647.89
2018-02-10T06:37:00.985Z,99650.55
2018-02-10T06:39:29.550Z,99650.17
2018-02-10T06:41:58.168Z,99646.05
2018-02-10T06:44:26.730Z,99651.38
2018-02-10T06:46:55.287Z,99652.93
2018-02-10T06:49:24.656Z,99658.09
2018-02-10T06:51:53.203Z,99652.47
2018-02-10T06:54:21.756Z,99652.25
2018-02-10T06:56:51.284Z,99656.70
2018-02-10T06:59:19.849Z,99663.63
2018-02-10T07:01:48.407Z,99672.39
2018-02-10T07:04:17.234Z,99668.17
2018-02-10T07:06:45.796Z,99666.47
2018-02-10T07:09:14.344Z,99658.95
2018-02-10T07:11:43.901Z,99658.64
2018-02-10T07:14:13.379Z,99658.84
2018-02-10T07:16:41.945Z,99657.02
2018-02-10T07:19:11.321Z,99658.96
2018-02-10T07:21:40.669Z,99646.95
2018-02-10T07:24:09.228Z,99650.91
2018-02-10T07:26:38.693Z,99655.02
2018-02-10T07:29:07.252Z,99645.88
2018-02-10T07:31:35.810Z,99644.91
2018-02-10T07:34:05.176Z,99636.46
2018-02-10T07:36:33.737Z,99634.55
2018-02-10T07:39:02.288Z,99634.47
2018-02-10T07:41:31.004Z,99632.59
2018-02-10T07:43:59.560Z,99633.24
2018-02-10T07:48:15.238Z,99635.63
2018-02-10T07:50:43.792Z,99628.99
2018-02-10T07:53:12.349Z,99627.47
2018-02-10T07:55:40.962Z,99626.27
2018-02-10T07:58:11.080Z,99620.73
2018-02-10T08:00:39.640Z,99614.30
2018-02-10T08:03:08.628Z,99612.66
2018-02-10T08:05:37.197Z,99613.61
2018-02-10T08:08:05.747Z,99613.77
2018-02-10T08:10:34.585Z,99613.05
2018-02-10T08:13:03.168Z,99601.09
2018-02-10T08:15:31.733Z,99594.80
2018-02-10T08:18:00.743Z,99590.02
2018-02-10T08:20:29.300Z,99590.91
2018-02-10T08:22:58.206Z,99582.91
2018-02-10T08:25:27.315Z,99589.21
2018-02-10T08:27:55.869Z,99581.97
2018-02-10T08:30:24.429Z,99573.71
2018-02-10T08:32:53.072Z,99570.58
2018-02-10T08:35:21.643Z,99555.81
2018-02-10T08:37:50.232Z,99553.75
2018-02-10T08:40:18.828Z,99563.88
2018-02-10T08:42:47.395Z,99561.74
2018-02-10T08:45:16.276Z,99568.91
2018-02-10T08:47:44.975Z,99574.64
2018-02-10T08:50:13.531Z,99573.08
2018-02-10T08:52:42.088Z,99565.86
2018-02-10T08:55:10.692Z,99559.66
2018-02-10T08:57:39.257Z,99556.59
2018-02-10T09:00:08.610Z,99559.79
2018-02-10T09:02:37.312Z,99555.69
2018-02-10T09:05:05.874Z,99560.28
2018-02-10T09:07:34.429Z,99549.42
2018-02-10T09:10:03.244Z,99551.45
2018-02-10T09:12:32.566Z,99551.08
2018-02-10T09:15:01.158Z,99549.45
2018-02-10T09:17:30.641Z,99549.03
2018-02-10T09:19:59.198Z,99539.28
2018-02-10T09:22:27.788Z,99539.82
2018-02-10T09:24:56.587Z,99537.52
2018-02-10T09:27:25.135Z,99537.42
2018-02-10T09:29:53.708Z,99543.09
2018-02-10T09:32:23.175Z,99537.15
2018-02-10T09:34:51.742Z,99526.63
2018-02-10T09:37:20.296Z,99525.33
2018-02-10T09:39:49.114Z,99513.86
2018-02-10T09:42:17.668Z,99509.34
2018-02-10T09:44:46.244Z,99500.86
2018-02-10T09:47:14.838Z,99501.69
2018-02-10T09:49:44.170Z,99494.28
2018-02-10T09:52:12.732Z,99485.05
2018-02-10T09:54:41.386Z,99479.90
2018-02-10T09:57:09.941Z,99473.03
2018-02-10T09:59:38.496Z,99468.81
2018-02-10T10:02:07.192Z,99467.10
2018-02-10T10:04:35.745Z,99468.33
2018-02-10T10:07:04.308Z,99477.31
2018-02-10T10:09:33.675Z,99465.62
2018-02-10T10:12:02.233Z,99465.34
2018-02-10T10:14:31.552Z,99467.22
2018-02-10T10:17:00.245Z,99462.75
2018-02-10T10:19:29.014Z,99465.38
2018-02-10T10:21:57.569Z,99459.87
2018-02-10T10:24:26.548Z,99459.30
2018-02-10T10:26:55.268Z,99453.09
2018-02-10T10:29:23.955Z,99447.39
2018-02-10T10:31:52.849Z,99448.19
2018-02-10T10:34:21.535Z,99442.29
2018-02-10T10:36:50.225Z,99437.13
2018-02-10T10:39:19.155Z,99427.83
2018-02-10T10:41:48.517Z,99430.67
2018-02-10T10:44:17.100Z,99421.75
2018-02-10T10:46:45.886Z,99419.48
2018-02-10T10:49:14.670Z,99419.39
2018-02-10T10:51:43.320Z,99409.60
2018-02-10T10:54:12.043Z,99402.91
2018-02-10T10:56:40.728Z,99397.97
2018-02-10T10:59:09.414Z,99397.47
2018-02-10T11:01:38.111Z,99394.78
2018-02-10T11:04:17.763Z,99386.17
2018-02-10T11:06:46.473Z,99376.36
2018-02-10T11:09:15.797Z,99364.72
2018-02-10T11:11:44.353Z,99365.52
2018-02-10T11:14:13.721Z,99359.02
2018-02-10T11:16:42.304Z,99363.91
2018-02-10T11:19:35.431Z,99359.64
2018-02-10T11:22:03.996Z,99346.02
2018-02-10T11:24:33.321Z,99348.38
2018-02-10T11:27:02.337Z,99336.00
2018-02-10T11:29:30.893Z,99335.07
2018-02-10T11:31:59.444Z,99337.22
2018-02-10T11:34:29.012Z,99338.34
2018-02-10T11:36:57.596Z,99331.75
2018-02-10T11:39:26.147Z,99331.14
2018-02-10T11:41:54.780Z,99331.83
2018-02-10T11:44:23.346Z,99331.55
2018-02-10T11:46:51.940Z,99312.99
2018-02-10T11:49:20.713Z,99316.89
2018-02-10T11:51:49.332Z,99311.05
2018-02-10T11:54:17.884Z,99307.92
2018-02-10T11:56:46.869Z,99311.17
2018-02-10T11:59:15.417Z,99299.06
2018-02-10T12:01:43.999Z,99301.54
2018-02-10T12:04:12.912Z,99304.76
2018-02-10T12:06:41.469Z,99306.81
2018-02-10T12:09:10.785Z,99303.09
2018-02-10T12:11:39.704Z,99300.32
2018-02-10T12:14:08.256Z,99299.00
2018-02-10T12:16:36.812Z,99291.69
2018-02-10T12:19:06.280Z,99287.05
2018-02-10T12:21:34.881Z,99287.85
2018-02-10T12:24:03.432Z,99281.67
2018-02-10T12:26:32.926Z,99286.52
2018-02-10T12:29:01.536Z,99281.16
2018-02-10T12:31:30.864Z,99273.70
2018-02-10T12:34:00.237Z,99276.14
2018-02-10T12:36:28.802Z,99270.25
2018-02-10T12:38:57.392Z,99265.69
2018-02-10T12:41:26.168Z,99262.94
2018-02-10T12:43:54.720Z,99263.00
2018-02-10T12:46:23.276Z,99262.48
2018-02-10T12:51:54.204Z,99258.33
2018-02-10T12:54:22.990Z,99259.11
2018-02-10T12:56:51.572Z,99250.47
2018-02-10T12:59:20.120Z,99251.47
2018-02-10T13:01:48.733Z,99261.25
2018-02-10T13:04:17.280Z,99249.81
2018-02-10T13:06:45.836Z,99251.91
2018-02-10T13:09:15.304Z,99252.31
2018-02-10T13:11:43.855Z,99256.55
2018-02-10T13:14:12.403Z,99254.45
2018-02-10T13:16:41.280Z,99246.60
2018-02-10T13:19:09.841Z,99251.74
2018-02-10T13:21:38.398Z,99250.64
2018-02-10T13:24:07.012Z,99258.50
2018-02-10T13:26:35.568Z,99254.41
2018-02-10T13:29:04.154Z,99247.52
2018-02-10T13:31:33.036Z,99248.80
2018-02-10T13:34:01.585Z,99249.14
2018-02-10T13:36:30.132Z,99247.08
2018-02-10T13:38:58.920Z,99247.77
2018-02-10T13:41:27.483Z,99244.22
2018-02-10T13:43:56.044Z,99250.05
2018-02-10T13:46:25.504Z,99251.55
2018-02-10T13:48:54.071Z,99251.79
2018-02-10T13:51:22.625Z,99250.55
2018-02-10T13:53:51.234Z,99249.88
2018-02-10T13:56:19.782Z,99249.74
2018-02-10T13:58:48.332Z,99250.91
2018-02-10T14:01:16.937Z,99250.08
2018-02-10T14:03:46.251Z,99247.95
2018-02-10T14:06:14.800Z,99241.61
2018-02-10T14:08:43.665Z,99238.73
2018-02-10T14:11:12.223Z,99241.61
2018-02-10T14:13:40.805Z,99234.16
2018-02-10T14:16:09.416Z,99235.68
2018-02-10T14:18:37.995Z,99232.42
2018-02-10T14:21:06.546Z,99229.21
2018-02-10T14:23:35.463Z,99233.71
2018-02-10T14:26:04.024Z,99224.67
2018-02-10T14:28:32.581Z,99229.61
2018-02-10T14:31:02.046Z,99223.20
2018-02-10T14:33:30.600Z,99221.96
2018-02-10T14:35:59.149Z,99224.89
2018-02-10T14:38:28.517Z,99218.85
2018-02-10T14:40:57.084Z,99218.19
2018-02-10T14:43:25.636Z,99214.34
2018-02-10T14:45:54.231Z,99215.77
2018-02-10T14:48:22.786Z,99204.62
2018-02-10T14:50:52.100Z,99202.13
2018-02-10T14:53:21.568Z,99203.05
2018-02-10T14:55:50.126Z,99205.51
2018-02-10T14:58:18.676Z,99206.16
2018-02-10T15:00:47.272Z,99202.13
2018-02-10T15:03:15.824Z,99201.06
2018-02-10T15:05:45.144Z,99209.80
2018-02-10T15:08:13.949Z,99201.88
2018-02-10T15:10:42.496Z,99205.63
2018-02-10T15:13:12.037Z,99198.80
2018-02-10T15:15:40.761Z,99200.81
2018-02-10T15:18:09.328Z,99203.14
2018-02-10T15:20:37.889Z,99202.13
2018-02-10T15:23:06.489Z,99200.28
2018-02-10T15:25:35.077Z,99203.83
2018-02-10T15:28:03.644Z,99205.12
2018-02-10T15:30:50.265Z,99198.73
2018-02-10T15:33:36.566Z,99199.70
2018-02-10T15:36:05.535Z,99205.41
2018-02-10T15:38:34.238Z,99193.92
2018-02-10T15:41:02.893Z,99190.81
2018-02-10T15:43:31.512Z,99187.30
2018-02-10T15:46:00.155Z,99179.27
2018-02-10T15:48:28.882Z,99172.39
2018-02-10T15:50:57.939Z,99165.55
2018-02-10T15:53:26.560Z,99164.88
2018-02-10T15:55:55.251Z,99159.34
2018-02-10T15:58:24.089Z,99153.94
2018-02-10T16:00:53.541Z,99155.20
2018-02-10T16:03:23.073Z,99157.50
2018-02-10T16:05:51.993Z,99156.22
2018-02-10T16:08:21.312Z,99150.22
2018-02-10T16:10:49.869Z,99147.02
2018-02-10T16:13:19.422Z,99143.47
2018-02-10T16:15:47.968Z,99145.60
2018-02-10T16:18:17.288Z,99134.38
2018-02-10T16:20:45.899Z,99129.27
2018-02-10T16:23:14.448Z,99130.48
2018-02-10T16:25:43.066Z,99126.92
2018-02-10T16:28:12.100Z,99131.36
2018-02-10T16:30:41.423Z,99128.48
2018-02-10T16:33:10.025Z,99126.73
2018-02-10T16:35:38.622Z,99115.16
2018-02-10T16:38:07.168Z,99116.05
2018-02-10T16:40:35.744Z,99106.30
2018-02-10T16:43:05.284Z,99120.61
2018-02-10T16:45:33.830Z,99121.84
2018-02-10T16:48:03.145Z,99122.77
2018-02-10T16:50:32.789Z,99124.39
2018-02-10T16:53:01.341Z,99095.91
2018-02-10T16:55:29.895Z,99114.97
2018-02-10T16:57:59.426Z,99109.03
2018-02-10T17:00:27.975Z,99107.58
2018-02-10T17:02:57.580Z,99103.88
2018-02-10T17:05:26.268Z,99109.83
2018-02-10T17:07:54.816Z,99108.47
2018-02-10T17:10:24.132Z,99106.61
2018-02-10T17:12:53.680Z,99101.02
2018-02-10T17:15:22.228Z,99093.50
2018-02-10T17:17:50.774Z,99080.88
2018-02-10T17:20:19.485Z,99086.28
2018-02-10T17:22:48.811Z,99079.11
2018-02-10T17:25:17.375Z,99079.70
2018-02-10T17:27:46.031Z,99075.52
2018-02-10T17:30:15.564Z,99066.97
2018-02-10T17:32:45.615Z,99059.20
2018-02-10T17:35:14.410Z,99059.33
2018-02-10T17:37:42.989Z,99060.86
2018-02-10T17:40:11.541Z,99055.72
2018-02-10T17:42:40.138Z,99048.84
2018-02-10T17:45:08.692Z,99044.11
2018-02-10T17:47:37.992Z,99039.61
2018-02-10T17:50:07.453Z,99033.59
2018-02-10T17:52:36.005Z,99024.14
2018-02-10T17:55:04.568Z,99027.46
2018-02-10T17:57:33.944Z,99028.47
2018-02-10T18:00:02.505Z,99031.34
2018-02-10T18:02:31.068Z,99031.77
2018-02-10T18:04:59.810Z,99027.67
2018-02-10T18:07:29.124Z,99023.67
2018-02-10T18:09:58.439Z,99022.72
2018-02-10T18:12:27.260Z,99026.08
2018-02-10T18:14:55.808Z,99027.29
2018-02-10T18:17:24.372Z,99020.17
2018-02-10T18:19:54.034Z,99023.53
2018-02-10T18:22:22.586Z,99016.33
2018-02-10T18:24:51.140Z,99027.37
2018-02-10T18:27:20.789Z,99018.41
2018-02-10T18:29:49.333Z,99016.91
2018-02-10T18:32:18.652Z,99014.02
2018-02-10T18:34:47.580Z,99012.59
2018-02-10T18:37:16.129Z,99010.74
2018-02-10T18:39:44.676Z,99017.80
2018-02-10T18:42:13.636Z,99022.39
2018-02-10T18:44:42.184Z,99027.20
2018-02-10T18:47:10.737Z,99035.08
2018-02-10T18:49:39.440Z,99048.04
2018-02-10T18:52:08.760Z,99056.15
2018-02-10T18:54:37.312Z,99058.05
2018-02-10T18:57:06.772Z,99072.33
2018-02-10T18:59:35.328Z,99080.39
2018-02-10T19:02:03.883Z,99095.31
2018-02-10T19:04:33.454Z,99089.59
2018-02-10T19:07:02.005Z,99088.80
2018-02-10T19:09:30.575Z,99088.55
2018-02-10T19:11:59.468Z,99092.73
2018-02-10T19:14:28.049Z,99091.95
2018-02-10T19:16:56.583Z,99089.70
2018-02-10T19:19:25.184Z,99086.63
2018-02-10T19:21:53.737Z,99074.19
2018-02-10T19:24:22.289Z,99067.02
2018-02-10T19:26:50.884Z,99052.09
2018-02-10T19:29:19.436Z,99045.30
2018-02-10T19:31:48.752Z,99031.50
2018-02-10T19:34:23.412Z,99029.86
2018-02-10T19:36:51.969Z,99022.62
2018-02-10T19:39:20.522Z,99019.30
2018-02-10T19:41:50.080Z,99015.45
2018-02-10T19:44:18.641Z,99007.20
2018-02-10T19:46:47.352Z,99011.47
2018-02-10T19:49:16.281Z,99014.41
2018-02-10T19:51:45.601Z,99012.22
2018-02-10T19:54:14.151Z,99008.34
2018-02-10T19:56:43.020Z,99009.05
2018-02-10T19:59:11.579Z,99010.17
2018-02-10T20:01:40.136Z,99012.50
2018-02-10T20:04:08.833Z,99007.94
2018-02-10T20:06:37.394Z,99011.94
2018-02-10T20:09:06.733Z,99009.48
2018-02-10T20:11:35.539Z,99016.95
2018-02-10T20:14:04.092Z,99020.13
2018-02-10T20:16:32.645Z,99019.25
2018-02-10T20:19:02.029Z,99012.78
2018-02-10T20:21:30.589Z,99009.41
2018-02-10T20:23:59.178Z,99003.42
2018-02-10T20:26:27.772Z,99005.98
2018-02-10T20:28:56.357Z,99005.00
2018-02-10T20:31:24.923Z,99016.95
2018-02-10T20:33:53.519Z,99017.77
2018-02-10T20:36:22.064Z,99029.78
2018-02-10T20:38:50.609Z,99020.73
2018-02-10T20:41:19.986Z,99030.42
2018-02-10T20:43:48.548Z,99029.66
2018-02-10T20:46:17.087Z,99018.63
2018-02-10T20:48:46.644Z,99026.56
2018-02-10T20:51:15.197Z,99020.06
2018-02-10T20:53:43.757Z,99021.92
2018-02-10T20:56:13.269Z,99027.64
2018-02-10T20:58:41.820Z,99031.23
2018-02-10T21:01:10.381Z,99033.45
2018-02-10T21:03:39.372Z,99033.19
2018-02-10T21:06:07.923Z,99032.18
2018-02-10T21:08:36.472Z,99031.59
2018-02-10T21:11:05.840Z,99027.02
2018-02-10T21:13:34.376Z,99025.99
2018-02-10T21:16:03.712Z,99021.96
2018-02-10T21:18:39.724Z,99015.48
2018-02-10T21:21:09.233Z,99019.30
2018-02-10T21:23:38.549Z,99006.45
2018-02-10T21:26:07.140Z,99003.30
2018-02-10T21:28:35.693Z,99004.83
2018-02-10T21:31:05.050Z,98991.66
2018-02-10T21:33:33.740Z,98996.92
2018-02-10T21:36:02.288Z,98995.83
2018-02-10T21:38:30.828Z,98993.17
2018-02-10T21:40:59.548Z,98993.34
2018-02-10T21:43:28.092Z,98990.33
2018-02-10T21:45:56.640Z,98989.42
2018-02-10T21:48:25.517Z,98981.99
2018-02-10T21:50:54.053Z,98978.09
2018-02-10T21:53:22.595Z,98974.93
2018-02-10T21:55:51.298Z,98965.56
2018-02-10T21:58:19.844Z,98955.34
2018-02-10T22:00:48.384Z,98962.00
2018-02-10T22:03:17.116Z,98957.38
2018-02-10T22:05:45.664Z,98956.84
2018-02-10T22:08:14.984Z,98953.70
2018-02-10T22:10:44.333Z,98956.50
2018-02-10T22:13:13.652Z,98962.80
2018-02-10T22:15:42.201Z,98953.77
2018-02-10T22:18:11.106Z,98950.14
2018-02-10T22:20:39.644Z,98958.78
2018-02-10T22:23:08.993Z,98962.80
2018-02-10T22:25:37.688Z,98963.13
2018-02-10T22:28:06.227Z,98959.31
2018-02-10T22:30:34.801Z,98948.77
2018-02-10T22:33:03.388Z,98947.64
2018-02-10T22:35:31.940Z,98945.45
2018-02-10T22:38:00.491Z,98942.86
2018-02-10T22:40:29.089Z,98935.41
2018-02-10T22:42:57.637Z,98930.24
2018-02-10T22:45:26.172Z,98936.25
2018-02-10T22:47:55.034Z,98926.42
2018-02-10T22:50:23.571Z,98917.69
2018-02-10T22:52:52.109Z,98925.15
2018-02-10T22:55:20.700Z,98927.52
2018-02-10T22:57:49.256Z,98929.69
2018-02-10T23:00:17.829Z,98933.14
2018-02-10T23:02:46.428Z,98936.92
2018-02-10T23:05:14.964Z,98936.95
2018-02-10T23:07:44.268Z,98934.25
2018-02-10T23:10:13.721Z,98925.31
2018-02-10T23:12:42.259Z,98931.98
2018-02-10T23:15:10.805Z,98939.28
2018-02-10T23:17:39.564Z,98935.15
2018-02-10T23:20:08.115Z,98930.08
2018-02-10T23:22:36.655Z,98922.29
2018-02-10T23:25:05.540Z,98918.67
2018-02-10T23:27:34.081Z,98914.17
2018-02-10T23:30:02.620Z,98907.31
2018-02-10T23:32:32.869Z,98907.62
2018-02-10T23:35:01.412Z,98907.94
2018-02-10T23:37:29.960Z,98898.36
2018-02-10T23:39:58.885Z,98898.22
2018-02-10T23:42:27.443Z,98900.05
2018-02-10T23:44:55.988Z,98887.12
2018-02-10T23:47:24.592Z,98882.19
2018-02-10T23:49:53.132Z,98876.56
2018-02-10T23:52:21.680Z,98885.84
2018-02-10T23:54:50.565Z,98878.00
2018-02-10T23:57:19.104Z,98874.04
2018-02-10T23:59:47.644Z,98874.44
